sensor_id;sensor_type;location;lat;lon;timestamp;pressure;altitude;pressure_sealevel;temperature;humidity
3260;BME280;22469;48.150;14.004;2023-03-20T00:02:20;98135.84;;;13.66;62.24
3260;BME280;22469;48.150;14.004;2023-03-20T00:04:49;98142.88;;;13.63;62.42
3260;BME280;22469;48.150;14.004;2023-03-20T00:07:17;98144.03;;;13.56;62.66
3260;BME280;22469;48.150;14.004;2023-03-20T00:09:44;98142.47;;;13.51;62.90
3260;BME280;22469;48.150;14.004;2023-03-20T00:12:20;98147.75;;;13.48;63.11
3260;BME280;22469;48.150;14.004;2023-03-20T00:14:50;98145.19;;;13.48;62.85
3260;BME280;22469;48.150;14.004;2023-03-20T00:17:19;98145.19;;;13.48;63.03
3260;BME280;22469;48.150;14.004;2023-03-20T00:19:47;98153.13;;;13.44;62.98
3260;BME280;22469;48.150;14.004;2023-03-20T00:22:14;98146.28;;;13.43;63.27
3260;BME280;22469;48.150;14.004;2023-03-20T00:24:41;98148.13;;;13.39;63.79
3260;BME280;22469;48.150;14.004;2023-03-20T00:27:12;98148.84;;;13.43;63.71
3260;BME280;22469;48.150;14.004;2023-03-20T00:29:41;98146.22;;;13.44;63.42
3260;BME280;22469;48.150;14.004;2023-03-20T00:32:11;98139.19;;;13.48;63.40
3260;BME280;22469;48.150;14.004;2023-03-20T00:34:39;98136.50;;;13.51;63.14
3260;BME280;22469;48.150;14.004;2023-03-20T00:37:08;98144.53;;;13.43;63.95
3260;BME280;22469;48.150;14.004;2023-03-20T00:39:37;98145.56;;;13.39;64.19
3260;BME280;22469;48.150;14.004;2023-03-20T00:42:05;98135.34;;;13.38;64.30
3260;BME280;22469;48.150;14.004;2023-03-20T00:44:48;98144.53;;;13.43;63.98
3260;BME280;22469;48.150;14.004;2023-03-20T00:47:23;98140.41;;;13.39;64.17
3260;BME280;22469;48.150;14.004;2023-03-20T00:49:52;98136.28;;;13.35;64.35
3260;BME280;22469;48.150;14.004;2023-03-20T00:52:22;98135.38;;;13.36;64.58
3260;BME280;22469;48.150;14.004;2023-03-20T00:54:50;98137.25;;;13.33;64.64
3260;BME280;22469;48.150;14.004;2023-03-20T00:57:26;98132.03;;;13.34;64.58
3260;BME280;22469;48.150;14.004;2023-03-20T01:00:00;98140.59;;;13.35;64.58
3260;BME280;22469;48.150;14.004;2023-03-20T01:02:30;98141.44;;;13.35;64.43
3260;BME280;22469;48.150;14.004;2023-03-20T01:04:58;98138.81;;;13.37;64.43
3260;BME280;22469;48.150;14.004;2023-03-20T01:07:26;98137.91;;;13.38;64.38
3260;BME280;22469;48.150;14.004;2023-03-20T01:09:53;98132.03;;;13.34;64.60
3260;BME280;22469;48.150;14.004;2023-03-20T01:12:20;98135.25;;;13.39;64.41
3260;BME280;22469;48.150;14.004;2023-03-20T01:14:54;98134.38;;;13.40;64.41
3260;BME280;22469;48.150;14.004;2023-03-20T01:17:24;98142.03;;;13.42;64.23
3260;BME280;22469;48.150;14.004;2023-03-20T01:19:53;98140.59;;;13.35;64.60
3260;BME280;22469;48.150;14.004;2023-03-20T01:22:21;98144.94;;;13.34;64.62
3260;BME280;22469;48.150;14.004;2023-03-20T01:24:48;98145.56;;;13.39;64.50
3260;BME280;22469;48.150;14.004;2023-03-20T01:27:17;98146.22;;;13.44;64.23
3260;BME280;22469;48.150;14.004;2023-03-20T01:29:45;98145.09;;;13.50;64.04
3260;BME280;22469;48.150;14.004;2023-03-20T01:32:15;98149.31;;;13.52;63.84
3260;BME280;22469;48.150;14.004;2023-03-20T01:34:44;98136.38;;;13.54;63.79
3260;BME280;22469;48.150;14.004;2023-03-20T01:37:21;98144.81;;;13.58;63.60
3260;BME280;22469;48.150;14.004;2023-03-20T01:39:52;98141.56;;;13.52;63.89
3260;BME280;22469;48.150;14.004;2023-03-20T01:42:19;98141.00;;;13.46;64.25
3260;BME280;22469;48.150;14.004;2023-03-20T01:44:46;98147.88;;;13.45;64.38
3260;BME280;22469;48.150;14.004;2023-03-20T01:47:17;98152.53;;;13.37;64.65
3260;BME280;22469;48.150;14.004;2023-03-20T01:53:18;98153.81;;;13.27;65.45
3260;BME280;22469;48.150;14.004;2023-03-20T01:55:50;98158.97;;;13.27;65.14
3260;BME280;22469;48.150;14.004;2023-03-20T01:58:24;98158.13;;;13.26;65.38
3260;BME280;22469;48.150;14.004;2023-03-20T02:00:58;98160.31;;;13.14;65.63
3260;BME280;22469;48.150;14.004;2023-03-20T02:03:25;98165.22;;;12.98;66.41
3260;BME280;22469;48.150;14.004;2023-03-20T02:05:54;98159.16;;;12.99;66.29
3260;BME280;22469;48.150;14.004;2023-03-20T02:08:30;98159.53;;;13.12;66.05
3260;BME280;22469;48.150;14.004;2023-03-20T02:10:59;98155.75;;;13.20;65.28
3260;BME280;22469;48.150;14.004;2023-03-20T02:13:28;98150.25;;;13.30;64.97
3260;BME280;22469;48.150;14.004;2023-03-20T02:16:04;98155.09;;;13.37;64.77
3260;BME280;22469;48.150;14.004;2023-03-20T02:18:41;98157.59;;;13.39;64.85
3260;BME280;22469;48.150;14.004;2023-03-20T02:30:47;98148.84;;;13.43;64.06
3260;BME280;22469;48.150;14.004;2023-03-20T02:37:01;98160.06;;;13.42;64.13
3260;BME280;22469;48.150;14.004;2023-03-20T02:45:32;98164.09;;;13.27;64.73
3260;BME280;22469;48.150;14.004;2023-03-20T02:48:37;98172.81;;;13.23;64.23
3260;BME280;22469;48.150;14.004;2023-03-20T02:57:03;98172.03;;;13.21;64.08
3260;BME280;22469;48.150;14.004;2023-03-20T02:59:45;98176.41;;;13.19;64.14
3260;BME280;22469;48.150;14.004;2023-03-20T03:02:26;98171.50;;;13.13;64.47
3260;BME280;22469;48.150;14.004;2023-03-20T03:05:02;98171.88;;;13.03;64.76
3260;BME280;22469;48.150;14.004;2023-03-20T03:07:34;98169.75;;;12.91;65.63
3260;BME280;22469;48.150;14.004;2023-03-20T03:10:33;98176.78;;;12.88;65.80
3260;BME280;22469;48.150;14.004;2023-03-20T03:13:05;98174.78;;;12.72;66.56
3260;BME280;22469;48.150;14.004;2023-03-20T03:15:43;98176.47;;;12.73;66.36
3260;BME280;22469;48.150;14.004;2023-03-20T03:18:18;98185.84;;;12.74;66.11
3260;BME280;22469;48.150;14.004;2023-03-20T03:20:51;98194.41;;;12.75;65.89
3260;BME280;22469;48.150;14.004;2023-03-20T03:26:12;98181.19;;;12.62;66.43
3260;BME280;22469;48.150;14.004;2023-03-20T03:28:50;98179.34;;;12.66;66.10
3260;BME280;22469;48.150;14.004;2023-03-20T03:31:23;98186.94;;;12.69;65.78
3260;BME280;22469;48.150;14.004;2023-03-20T03:33:52;98182.66;;;12.68;65.72
3260;BME280;22469;48.150;14.004;2023-03-20T03:39:16;98191.41;;;12.64;65.87
3260;BME280;22469;48.150;14.004;2023-03-20T03:42:32;98197.50;;;12.61;65.78
3260;BME280;22469;48.150;14.004;2023-03-20T03:45:14;98183.97;;;12.56;65.96
3260;BME280;22469;48.150;14.004;2023-03-20T03:47:57;98191.81;;;12.53;66.18
3260;BME280;22469;48.150;14.004;2023-03-20T03:50:36;98200.47;;;12.50;66.29
3260;BME280;22469;48.150;14.004;2023-03-20T03:53:21;98201.31;;;12.51;66.18
3260;BME280;22469;48.150;14.004;2023-03-20T03:55:53;98196.16;;;12.51;66.42
3260;BME280;22469;48.150;14.004;2023-03-20T03:58:38;98202.19;;;12.51;66.00
3260;BME280;22469;48.150;14.004;2023-03-20T04:01:09;98189.34;;;12.50;66.03
3260;BME280;22469;48.150;14.004;2023-03-20T04:03:45;98199.47;;;12.54;66.07
3260;BME280;22469;48.150;14.004;2023-03-20T04:06:15;98202.81;;;12.56;65.83
3260;BME280;22469;48.150;14.004;2023-03-20T04:08:43;98200.31;;;12.55;65.69
3260;BME280;22469;48.150;14.004;2023-03-20T04:11:16;98204.47;;;12.59;65.67
3260;BME280;22469;48.150;14.004;2023-03-20T04:13:47;98207.78;;;12.61;65.41
3260;BME280;22469;48.150;14.004;2023-03-20T04:16:16;98203.50;;;12.62;65.33
3260;BME280;22469;48.150;14.004;2023-03-20T04:18:46;98204.34;;;12.62;65.48
3260;BME280;22469;48.150;14.004;2023-03-20T04:21:13;98204.34;;;12.62;65.42
3260;BME280;22469;48.150;14.004;2023-03-20T04:23:42;98211.16;;;12.63;65.95
3260;BME280;22469;48.150;14.004;2023-03-20T04:26:09;98213.81;;;12.62;66.25
3260;BME280;22469;48.150;14.004;2023-03-20T04:28:36;98221.56;;;12.60;66.48
3260;BME280;22469;48.150;14.004;2023-03-20T04:31:04;98215.50;;;12.61;66.85
3260;BME280;22469;48.150;14.004;2023-03-20T04:33:31;98213.66;;;12.65;66.62
3260;BME280;22469;48.150;14.004;2023-03-20T04:35:58;98224.69;;;12.68;66.58
3260;BME280;22469;48.150;14.004;2023-03-20T04:38:26;98223.81;;;12.69;66.79
3260;BME280;22469;48.150;14.004;2023-03-20T04:40:53;98230.59;;;12.72;67.49
3260;BME280;22469;48.150;14.004;2023-03-20T04:43:20;98234.81;;;12.73;66.75
3260;BME280;22469;48.150;14.004;2023-03-20T04:45:47;98231.41;;;12.72;67.04
3260;BME280;22469;48.150;14.004;2023-03-20T04:48:14;98231.47;;;12.71;67.09
3260;BME280;22469;48.150;14.004;2023-03-20T04:50:41;98240.69;;;12.76;67.23
3260;BME280;22469;48.150;14.004;2023-03-20T04:53:12;98240.63;;;12.78;66.97
3260;BME280;22469;48.150;14.004;2023-03-20T04:55:39;98244.84;;;12.80;67.57
3260;BME280;22469;48.150;14.004;2023-03-20T04:58:06;98245.63;;;12.83;67.41
3260;BME280;22469;48.150;14.004;2023-03-20T05:00:33;98246.47;;;12.83;67.44
3260;BME280;22469;48.150;14.004;2023-03-20T05:03:01;98250.78;;;12.83;67.57
3260;BME280;22469;48.150;14.004;2023-03-20T05:05:28;98251.38;;;12.89;67.48
3260;BME280;22469;48.150;14.004;2023-03-20T05:07:55;98258.22;;;12.90;67.56
3260;BME280;22469;48.150;14.004;2023-03-20T05:10:22;98256.34;;;12.94;67.38
3260;BME280;22469;48.150;14.004;2023-03-20T05:12:49;98260.78;;;12.90;67.62
3260;BME280;22469;48.150;14.004;2023-03-20T05:15:16;98259.00;;;12.92;67.75
3260;BME280;22469;48.150;14.004;2023-03-20T05:17:43;98266.66;;;12.94;67.72
3260;BME280;22469;48.150;14.004;2023-03-20T05:20:10;98274.28;;;12.97;67.71
3260;BME280;22469;48.150;14.004;2023-03-20T05:22:37;98275.03;;;12.99;67.52
3260;BME280;22469;48.150;14.004;2023-03-20T05:25:05;98281.91;;;12.98;66.97
3260;BME280;22469;48.150;14.004;2023-03-20T05:27:32;98275.00;;;13.00;67.79
3260;BME280;22469;48.150;14.004;2023-03-20T05:29:59;98283.00;;;12.93;67.87
3260;BME280;22469;48.150;14.004;2023-03-20T05:32:26;98284.69;;;12.94;68.04
3260;BME280;22469;48.150;14.004;2023-03-20T05:34:53;98287.91;;;12.99;67.89
3260;BME280;22469;48.150;14.004;2023-03-20T05:37:21;98287.75;;;13.03;67.81
3260;BME280;22469;48.150;14.004;2023-03-20T05:39:48;98289.31;;;13.08;67.68
3260;BME280;22469;48.150;14.004;2023-03-20T05:42:15;98286.63;;;13.11;68.05
3260;BME280;22469;48.150;14.004;2023-03-20T05:44:42;98289.84;;;13.16;67.30
3260;BME280;22469;48.150;14.004;2023-03-20T05:47:09;98296.50;;;13.21;66.98
3260;BME280;22469;48.150;14.004;2023-03-20T05:49:36;98293.78;;;13.26;67.04
3260;BME280;22469;48.150;14.004;2023-03-20T05:52:03;98297.03;;;13.31;66.90
3260;BME280;22469;48.150;14.004;2023-03-20T05:54:30;98289.25;;;13.33;66.69
3260;BME280;22469;48.150;14.004;2023-03-20T05:56:57;98303.81;;;13.34;66.47
3260;BME280;22469;48.150;14.004;2023-03-20T05:59:24;98302.19;;;13.31;66.74
3260;BME280;22469;48.150;14.004;2023-03-20T06:01:51;98299.63;;;13.31;67.00
3260;BME280;22469;48.150;14.004;2023-03-20T06:04:18;98296.22;;;13.31;66.94
3260;BME280;22469;48.150;14.004;2023-03-20T06:06:45;98303.09;;;13.30;67.20
3260;BME280;22469;48.150;14.004;2023-03-20T06:09:12;98305.69;;;13.30;67.10
3260;BME280;22469;48.150;14.004;2023-03-20T06:11:39;98304.66;;;13.34;67.04
3260;BME280;22469;48.150;14.004;2023-03-20T06:14:06;98301.25;;;13.34;67.06
3260;BME280;22469;48.150;14.004;2023-03-20T06:16:33;98301.84;;;13.40;66.96
3260;BME280;22469;48.150;14.004;2023-03-20T06:19:00;98310.34;;;13.42;67.20
3260;BME280;22469;48.150;14.004;2023-03-20T06:21:27;98312.00;;;13.43;66.91
3260;BME280;22469;48.150;14.004;2023-03-20T06:23:54;98311.19;;;13.43;66.89
3260;BME280;22469;48.150;14.004;2023-03-20T06:26:23;98313.47;;;13.50;66.74
3260;BME280;22469;48.150;14.004;2023-03-20T06:28:51;98309.81;;;13.56;66.53
3260;BME280;22469;48.150;14.004;2023-03-20T06:31:18;98314.91;;;13.58;66.47
3260;BME280;22469;48.150;14.004;2023-03-20T06:33:45;98316.63;;;13.57;66.29
3260;BME280;22469;48.150;14.004;2023-03-20T06:36:12;98320.78;;;13.61;66.95
3260;BME280;22469;48.150;14.004;2023-03-20T06:38:39;98314.91;;;13.58;66.83
3260;BME280;22469;48.150;14.004;2023-03-20T06:41:06;98315.56;;;13.63;67.33
3260;BME280;22469;48.150;14.004;2023-03-20T06:43:33;98324.19;;;13.62;66.73
3260;BME280;22469;48.150;14.004;2023-03-20T06:46:00;98320.72;;;13.63;67.36
3260;BME280;22469;48.150;14.004;2023-03-20T06:48:27;98327.72;;;13.59;67.16
3260;BME280;22469;48.150;14.004;2023-03-20T06:50:54;98329.88;;;13.70;67.50
3260;BME280;22469;48.150;14.004;2023-03-20T06:53:21;98335.88;;;13.70;67.57
3260;BME280;22469;48.150;14.004;2023-03-20T06:55:49;98337.63;;;13.48;68.58
3260;BME280;22469;48.150;14.004;2023-03-20T06:58:17;98352.78;;;13.56;68.62
3260;BME280;22469;48.150;14.004;2023-03-20T07:00:44;98343.16;;;13.61;68.37
3260;BME280;22469;48.150;14.004;2023-03-20T07:03:12;98352.56;;;13.62;68.26
3260;BME280;22469;48.150;14.004;2023-03-20T07:05:39;98350.91;;;13.59;68.58
3260;BME280;22469;48.150;14.004;2023-03-20T07:08:06;98344.84;;;13.60;68.68
3260;BME280;22469;48.150;14.004;2023-03-20T07:10:33;98340.16;;;13.71;68.49
3260;BME280;22469;48.150;14.004;2023-03-20T07:13:02;98341.22;;;13.66;68.56
3260;BME280;22469;48.150;14.004;2023-03-20T07:15:30;98349.81;;;13.43;69.55
3260;BME280;22469;48.150;14.004;2023-03-20T07:17:58;98344.03;;;13.38;69.87
3260;BME280;22469;48.150;14.004;2023-03-20T07:20:25;98329.88;;;13.70;68.81
3260;BME280;22469;48.150;14.004;2023-03-20T07:22:52;98339.16;;;13.96;68.21
3260;BME280;22469;48.150;14.004;2023-03-20T07:25:21;98339.38;;;13.91;67.72
3260;BME280;22469;48.150;14.004;2023-03-20T07:28:05;98349.84;;;13.65;68.68
3260;BME280;22469;48.150;14.004;2023-03-20T07:30:32;98348.47;;;13.78;69.13
3260;BME280;22469;48.150;14.004;2023-03-20T07:32:59;98353.28;;;13.65;68.97
3260;BME280;22469;48.150;14.004;2023-03-20T07:35:26;98353.94;;;13.92;68.36
3260;BME280;22469;48.150;14.004;2023-03-20T07:37:53;98355.00;;;14.09;67.74
3260;BME280;22469;48.150;14.004;2023-03-20T07:40:23;98350.16;;;14.21;67.27
3260;BME280;22469;48.150;14.004;2023-03-20T07:42:50;98355.03;;;14.29;67.02
3260;BME280;22469;48.150;14.004;2023-03-20T07:45:18;98351.84;;;14.43;66.30
3260;BME280;22469;48.150;14.004;2023-03-20T07:47:45;98358.19;;;14.56;65.81
3260;BME280;22469;48.150;14.004;2023-03-20T07:50:14;98367.94;;;14.50;66.51
3260;BME280;22469;48.150;14.004;2023-03-20T07:52:49;98378.66;;;14.18;67.20
3260;BME280;22469;48.150;14.004;2023-03-20T07:55:16;98372.19;;;14.08;67.23
3260;BME280;22469;48.150;14.004;2023-03-20T07:57:44;98376.94;;;14.19;67.84
3260;BME280;22469;48.150;14.004;2023-03-20T08:00:11;98376.41;;;14.31;66.30
3260;BME280;22469;48.150;14.004;2023-03-20T08:02:41;98374.72;;;14.10;67.41
3260;BME280;22469;48.150;14.004;2023-03-20T08:05:09;98373.66;;;13.93;67.74
3260;BME280;22469;48.150;14.004;2023-03-20T08:07:36;98372.34;;;14.05;67.35
3260;BME280;22469;48.150;14.004;2023-03-20T08:10:03;98378.75;;;14.37;66.64
3260;BME280;22469;48.150;14.004;2023-03-20T08:12:31;98379.56;;;14.60;66.24
3260;BME280;22469;48.150;14.004;2023-03-20T08:14:58;98373.41;;;14.83;65.03
3260;BME280;22469;48.150;14.004;2023-03-20T08:17:25;98374.22;;;15.04;63.31
3260;BME280;22469;48.150;14.004;2023-03-20T08:19:52;98376.25;;;15.16;63.04
3260;BME280;22469;48.150;14.004;2023-03-20T08:22:19;98376.41;;;15.13;63.60
3260;BME280;22469;48.150;14.004;2023-03-20T08:24:46;98375.47;;;15.14;62.88
3260;BME280;22469;48.150;14.004;2023-03-20T08:27:13;98383.78;;;15.21;62.65
3260;BME280;22469;48.150;14.004;2023-03-20T08:29:40;98386.47;;;15.19;61.97
3260;BME280;22469;48.150;14.004;2023-03-20T08:32:07;98381.78;;;15.08;62.17
3260;BME280;22469;48.150;14.004;2023-03-20T08:34:34;98390.56;;;15.04;62.26
3260;BME280;22469;48.150;14.004;2023-03-20T08:37:03;98385.00;;;14.74;63.55
3260;BME280;22469;48.150;14.004;2023-03-20T08:39:30;98394.97;;;15.02;63.07
3260;BME280;22469;48.150;14.004;2023-03-20T08:41:59;98387.94;;;14.85;63.08
3260;BME280;22469;48.150;14.004;2023-03-20T08:44:26;98390.72;;;14.81;63.30
3260;BME280;22469;48.150;14.004;2023-03-20T08:46:54;98394.47;;;14.94;61.49
3260;BME280;22469;48.150;14.004;2023-03-20T08:49:22;98399.34;;;15.00;61.71
3260;BME280;22469;48.150;14.004;2023-03-20T08:51:49;98396.00;;;15.17;61.54
3260;BME280;22469;48.150;14.004;2023-03-20T08:54:17;98394.78;;;15.26;61.80
3260;BME280;22469;48.150;14.004;2023-03-20T08:56:44;98396.38;;;15.09;62.99
3260;BME280;22469;48.150;14.004;2023-03-20T08:59:12;98392.06;;;15.29;62.37
3260;BME280;22469;48.150;14.004;2023-03-20T09:01:39;98388.16;;;15.39;62.21
3260;BME280;22469;48.150;14.004;2023-03-20T09:04:16;98389.97;;;15.37;62.39
3260;BME280;22469;48.150;14.004;2023-03-20T09:06:43;98394.03;;;14.84;63.67
3260;BME280;22469;48.150;14.004;2023-03-20T09:09:10;98397.41;;;15.05;63.26
3260;BME280;22469;48.150;14.004;2023-03-20T09:11:41;98399.56;;;14.96;63.82
3260;BME280;22469;48.150;14.004;2023-03-20T09:14:08;98399.88;;;14.47;64.57
3260;BME280;22469;48.150;14.004;2023-03-20T09:16:35;98395.69;;;14.65;64.72
3260;BME280;22469;48.150;14.004;2023-03-20T09:19:04;98395.09;;;14.99;63.20
3260;BME280;22469;48.150;14.004;2023-03-20T09:21:31;98394.34;;;15.16;62.79
3260;BME280;22469;48.150;14.004;2023-03-20T09:23:58;98402.13;;;14.96;63.43
3260;BME280;22469;48.150;14.004;2023-03-20T09:26:25;98402.25;;;14.92;62.57
3260;BME280;22469;48.150;14.004;2023-03-20T09:28:52;98407.03;;;15.02;62.49
3260;BME280;22469;48.150;14.004;2023-03-20T09:31:19;98401.88;;;15.02;62.81
3260;BME280;22469;48.150;14.004;2023-03-20T09:33:46;98404.59;;;14.78;63.58
3260;BME280;22469;48.150;14.004;2023-03-20T09:36:13;98404.59;;;14.78;63.43
3260;BME280;22469;48.150;14.004;2023-03-20T09:38:42;98403.78;;;14.78;63.54
3260;BME280;22469;48.150;14.004;2023-03-20T09:41:18;98406.66;;;14.90;63.14
3260;BME280;22469;48.150;14.004;2023-03-20T09:43:56;98405.53;;;14.77;63.05
3260;BME280;22469;48.150;14.004;2023-03-20T09:49:52;98406.84;;;14.86;63.05
3260;BME280;22469;48.150;14.004;2023-03-20T09:55:14;98400.75;;;15.07;61.92
3260;BME280;22469;48.150;14.004;2023-03-20T09:57:51;98402.84;;;14.99;62.67
3260;BME280;22469;48.150;14.004;2023-03-20T10:00:28;98398.47;;;15.20;61.92
3260;BME280;22469;48.150;14.004;2023-03-20T10:03:05;98401.63;;;15.08;62.14
3260;BME280;22469;48.150;14.004;2023-03-20T10:05:48;98398.41;;;14.62;63.91
3260;BME280;22469;48.150;14.004;2023-03-20T10:08:27;98393.44;;;14.78;63.46
3260;BME280;22469;48.150;14.004;2023-03-20T10:19:56;98387.22;;;15.21;60.65
3260;BME280;22469;48.150;14.004;2023-03-20T10:22:34;98382.41;;;15.13;60.84
3260;BME280;22469;48.150;14.004;2023-03-20T10:27:58;98384.53;;;14.64;62.66
3260;BME280;22469;48.150;14.004;2023-03-20T10:30:38;98380.78;;;14.51;63.81
3260;BME280;22469;48.150;14.004;2023-03-20T10:35:52;98381.34;;;15.17;61.65
3260;BME280;22469;48.150;14.004;2023-03-20T10:41:34;98368.28;;;15.21;60.81
3260;BME280;22469;48.150;14.004;2023-03-20T10:44:05;98360.56;;;15.39;60.52
3260;BME280;22469;48.150;14.004;2023-03-20T10:46:46;98361.06;;;15.67;60.54
3260;BME280;22469;48.150;14.004;2023-03-20T10:49:35;98361.25;;;15.81;59.43
3260;BME280;22469;48.150;14.004;2023-03-20T10:52:15;98358.72;;;15.41;61.00
3260;BME280;22469;48.150;14.004;2023-03-20T10:54:48;98357.75;;;15.63;59.73
3260;BME280;22469;48.150;14.004;2023-03-20T10:57:23;98355.72;;;16.06;58.79
3260;BME280;22469;48.150;14.004;2023-03-20T10:59:56;98352.56;;;15.82;58.83
3260;BME280;22469;48.150;14.004;2023-03-20T11:02:28;98360.47;;;15.41;59.45
3260;BME280;22469;48.150;14.004;2023-03-20T11:04:59;98355.88;;;15.67;59.67
3260;BME280;22469;48.150;14.004;2023-03-20T11:07:32;98352.59;;;15.99;58.66
3260;BME280;22469;48.150;14.004;2023-03-20T11:12:32;98349.16;;;15.62;58.68
3260;BME280;22469;48.150;14.004;2023-03-20T11:15:35;98351.91;;;15.22;60.25
3260;BME280;22469;48.150;14.004;2023-03-20T11:18:10;98349.22;;;15.61;59.40
3260;BME280;22469;48.150;14.004;2023-03-20T11:20:48;98351.75;;;15.06;61.05
3260;BME280;22469;48.150;14.004;2023-03-20T11:23:23;98347.13;;;15.31;60.19
3260;BME280;22469;48.150;14.004;2023-03-20T11:28:39;98347.06;;;15.14;61.16
3260;BME280;22469;48.150;14.004;2023-03-20T11:31:31;98342.75;;;15.14;61.33
3260;BME280;22469;48.150;14.004;2023-03-20T11:34:21;98344.13;;;15.03;61.38
3260;BME280;22469;48.150;14.004;2023-03-20T11:36:54;98338.91;;;15.04;61.63
3260;BME280;22469;48.150;14.004;2023-03-20T11:39:36;98344.00;;;15.25;60.20
3260;BME280;22469;48.150;14.004;2023-03-20T11:42:23;98337.66;;;15.32;60.24
3260;BME280;22469;48.150;14.004;2023-03-20T11:45:04;98341.75;;;14.98;60.53
3260;BME280;22469;48.150;14.004;2023-03-20T11:47:34;98344.38;;;14.97;60.81
3260;BME280;22469;48.150;14.004;2023-03-20T11:50:05;98343.91;;;15.07;61.00
3260;BME280;22469;48.150;14.004;2023-03-20T11:52:36;98337.22;;;15.22;60.76
3260;BME280;22469;48.150;14.004;2023-03-20T11:55:20;98334.50;;;15.25;60.93
3260;BME280;22469;48.150;14.004;2023-03-20T11:58:02;98340.00;;;14.99;61.58
3260;BME280;22469;48.150;14.004;2023-03-20T12:00:38;98340.38;;;15.29;60.61
3260;BME280;22469;48.150;14.004;2023-03-20T12:03:49;98343.94;;;14.68;61.93
3260;BME280;22469;48.150;14.004;2023-03-20T12:12:18;98343.91;;;14.88;61.63
3260;BME280;22469;48.150;14.004;2023-03-20T12:23:38;98337.63;;;14.94;61.72
3260;BME280;22469;48.150;14.004;2023-03-20T12:26:14;98345.13;;;15.19;60.50
3260;BME280;22469;48.150;14.004;2023-03-20T12:28:48;98346.88;;;14.79;61.21
3260;BME280;22469;48.150;14.004;2023-03-20T12:31:50;98337.03;;;15.08;61.14
3260;BME280;22469;48.150;14.004;2023-03-20T12:34:24;98338.19;;;15.01;61.14
3260;BME280;22469;48.150;14.004;2023-03-20T12:36:57;98336.31;;;15.04;61.03
3260;BME280;22469;48.150;14.004;2023-03-20T12:39:27;98325.69;;;15.29;60.02
3260;BME280;22469;48.150;14.004;2023-03-20T12:42:47;98328.06;;;14.96;60.82
3260;BME280;22469;48.150;14.004;2023-03-20T12:45:28;98326.19;;;14.40;62.67
3260;BME280;22469;48.150;14.004;2023-03-20T12:51:52;98332.06;;;14.64;61.87
3260;BME280;22469;48.150;14.004;2023-03-20T12:57:50;98326.31;;;14.97;61.33
3260;BME280;22469;48.150;14.004;2023-03-20T13:03:11;98326.16;;;15.56;59.77
3260;BME280;22469;48.150;14.004;2023-03-20T13:05:51;98322.31;;;15.84;58.38
3260;BME280;22469;48.150;14.004;2023-03-20T13:11:34;98321.84;;;15.57;59.01
3260;BME280;22469;48.150;14.004;2023-03-20T13:17:28;98313.03;;;15.97;57.64
3260;BME280;22469;48.150;14.004;2023-03-20T13:20:21;98310.59;;;16.29;56.96
3260;BME280;22469;48.150;14.004;2023-03-20T13:28:49;98300.97;;;16.48;55.95
3260;BME280;22469;48.150;14.004;2023-03-20T13:31:39;98293.59;;;16.23;55.98
3260;BME280;22469;48.150;14.004;2023-03-20T13:38:34;98298.63;;;16.26;56.19
3260;BME280;22469;48.150;14.004;2023-03-20T13:41:06;98292.47;;;16.11;57.07
3260;BME280;22469;48.150;14.004;2023-03-20T13:43:40;98293.22;;;15.79;57.29
3260;BME280;22469;48.150;14.004;2023-03-20T13:46:17;98287.84;;;15.64;57.37
3260;BME280;22469;48.150;14.004;2023-03-20T13:48:50;98292.63;;;15.74;57.71
3260;BME280;22469;48.150;14.004;2023-03-20T13:51:44;98283.56;;;16.00;56.99
3260;BME280;22469;48.150;14.004;2023-03-20T14:05:34;98284.41;;;16.35;55.30
3260;BME280;22469;48.150;14.004;2023-03-20T14:08:31;98284.78;;;16.27;55.54
3260;BME280;22469;48.150;14.004;2023-03-20T14:11:53;98281.22;;;16.13;56.21
3260;BME280;22469;48.150;14.004;2023-03-20T14:14:13;98282.44;;;16.05;56.46
3260;BME280;22469;48.150;14.004;2023-03-20T14:16:42;98280.59;;;16.25;56.19
3260;BME280;22469;48.150;14.004;2023-03-20T14:19:17;98282.22;;;16.27;55.81
3260;BME280;22469;48.150;14.004;2023-03-20T14:21:49;98287.69;;;16.54;55.18
3260;BME280;22469;48.150;14.004;2023-03-20T14:24:21;98287.69;;;16.54;54.83
3260;BME280;22469;48.150;14.004;2023-03-20T14:26:57;98283.66;;;16.16;55.73
3260;BME280;22469;48.150;14.004;2023-03-20T14:34:46;98292.25;;;16.16;56.75
3260;BME280;22469;48.150;14.004;2023-03-20T14:37:38;98285.63;;;16.61;55.57
3260;BME280;22469;48.150;14.004;2023-03-20T14:40:32;98283.31;;;16.90;54.24
3260;BME280;22469;48.150;14.004;2023-03-20T14:43:16;98286.81;;;16.71;55.14
3260;BME280;22469;48.150;14.004;2023-03-20T14:45:58;98283.13;;;16.09;56.69
3260;BME280;22469;48.150;14.004;2023-03-20T14:48:52;98280.38;;;16.12;56.66
3260;BME280;22469;48.150;14.004;2023-03-20T14:51:36;98282.13;;;16.11;56.78
3260;BME280;22469;48.150;14.004;2023-03-20T14:54:28;98273.44;;;16.13;57.18
3260;BME280;22469;48.150;14.004;2023-03-20T14:57:08;98274.47;;;16.43;55.51
3260;BME280;22469;48.150;14.004;2023-03-20T14:59:41;98276.63;;;16.35;55.61
3260;BME280;22469;48.150;14.004;2023-03-20T15:02:24;98272.94;;;16.56;54.26
3260;BME280;22469;48.150;14.004;2023-03-20T15:04:53;98260.25;;;16.68;53.19
3260;BME280;22469;48.150;14.004;2023-03-20T15:07:26;98268.78;;;16.19;53.93
3260;BME280;22469;48.150;14.004;2023-03-20T15:09:58;98265.16;;;16.06;54.48
3260;BME280;22469;48.150;14.004;2023-03-20T15:12:34;98268.56;;;16.24;54.01
3260;BME280;22469;48.150;14.004;2023-03-20T15:15:05;98268.34;;;16.11;54.40
3260;BME280;22469;48.150;14.004;2023-03-20T15:17:39;98266.28;;;16.35;53.47
3260;BME280;22469;48.150;14.004;2023-03-20T15:20:24;98269.03;;;16.32;54.09
3260;BME280;22469;48.150;14.004;2023-03-20T15:22:59;98267.78;;;16.39;53.26
3260;BME280;22469;48.150;14.004;2023-03-20T15:25:32;98262.84;;;16.34;53.25
3260;BME280;22469;48.150;14.004;2023-03-20T15:28:02;98263.72;;;16.18;52.69
3260;BME280;22469;48.150;14.004;2023-03-20T15:30:34;98261.16;;;16.33;52.27